createdAt,value
2022-11-10T00:01:10.732Z,12.20
2022-11-10T00:06:32.862Z,12.20
2022-11-10T00:11:55.102Z,12.20
2022-11-10T00:17:17.201Z,12.20
2022-11-10T00:22:40.937Z,12.30
2022-11-10T00:28:03.159Z,12.20
2022-11-10T00:33:25.437Z,12.10
2022-11-10T00:38:50.796Z,12.10
2022-11-10T00:44:12.961Z,12.00
2022-11-10T00:49:35.794Z,12.00
2022-11-10T00:54:57.871Z,12.10
2022-11-10T01:00:20.053Z,12.00
2022-11-10T01:05:42.989Z,12.00
2022-11-10T01:11:08.799Z,11.90
2022-11-10T01:16:32.602Z,11.90
2022-11-10T01:21:54.744Z,11.90
2022-11-10T01:27:17.064Z,11.90
2022-11-10T01:32:39.287Z,11.90
2022-11-10T01:38:01.459Z,11.90
2022-11-10T01:43:24.843Z,11.90
2022-11-10T01:48:52.950Z,11.90
2022-11-10T01:54:24.773Z,11.90
2022-11-10T01:59:49.068Z,11.80
2022-11-10T02:05:11.219Z,11.90
2022-11-10T02:10:33.332Z,11.90
2022-11-10T02:15:55.657Z,11.80
2022-11-10T02:21:19.548Z,11.80
2022-11-10T02:26:48.360Z,11.80
2022-11-10T02:32:10.446Z,11.80
2022-11-10T02:37:32.857Z,11.80
2022-11-10T02:42:54.955Z,11.80
2022-11-10T02:48:17.466Z,11.80
2022-11-10T02:53:39.670Z,11.80
2022-11-10T02:59:02.019Z,11.80
2022-11-10T03:04:24.099Z,11.80
2022-11-10T03:09:46.231Z,11.70
2022-11-10T03:15:08.931Z,11.70
2022-11-10T03:20:31.110Z,11.70
2022-11-10T03:25:53.198Z,11.70
2022-11-10T03:31:15.387Z,11.60
2022-11-10T03:36:37.495Z,11.60
2022-11-10T03:41:59.749Z,11.60
2022-11-10T03:47:21.910Z,11.60
2022-11-10T03:52:45.880Z,11.60
2022-11-10T03:58:07.978Z,11.60
2022-11-10T04:03:30.090Z,11.60
2022-11-10T04:08:59.592Z,11.60
2022-11-10T04:14:41.592Z,11.60
2022-11-10T04:20:04.038Z,11.60
2022-11-10T04:25:26.139Z,11.60
2022-11-10T04:30:48.207Z,11.60
2022-11-10T04:36:12.183Z,11.50
2022-11-10T04:41:34.934Z,11.50
2022-11-10T04:46:57.401Z,11.60
2022-11-10T04:52:19.501Z,11.60
2022-11-10T04:57:43.122Z,11.60
2022-11-10T05:03:07.813Z,11.60
2022-11-10T05:08:29.959Z,11.60
2022-11-10T05:13:52.206Z,11.70
2022-11-10T05:19:14.349Z,11.70
2022-11-10T05:24:36.483Z,11.80
2022-11-10T05:29:58.579Z,11.80
2022-11-10T05:35:20.813Z,11.90
2022-11-10T05:40:43.584Z,11.90
2022-11-10T05:46:05.942Z,12.00
2022-11-10T05:51:28.031Z,12.10
2022-11-10T05:56:50.206Z,12.30
2022-11-10T06:02:12.633Z,12.40
2022-11-10T06:07:34.948Z,12.50
2022-11-10T06:12:57.678Z,12.70
2022-11-10T06:18:19.802Z,12.80
2022-11-10T06:23:41.948Z,13.00
2022-11-10T06:29:04.223Z,13.10
2022-11-10T06:34:26.336Z,13.40
2022-11-10T06:39:48.457Z,13.50
2022-11-10T06:45:10.944Z,13.60
2022-11-10T06:50:33.564Z,13.60
2022-11-10T06:55:55.693Z,13.80
2022-11-10T07:01:22.288Z,14.20
2022-11-10T07:06:47.577Z,15.90
2022-11-10T07:12:09.708Z,18.20
2022-11-10T07:17:31.844Z,19.70
2022-11-10T07:22:59.362Z,20.50
2022-11-10T07:28:25.826Z,21.40
2022-11-10T07:33:54.346Z,23.00
2022-11-10T07:39:16.860Z,23.90
2022-11-10T07:44:38.998Z,24.00
2022-11-10T07:50:01.382Z,23.50
2022-11-10T07:55:23.475Z,23.50
2022-11-10T08:00:46.702Z,23.30
2022-11-10T08:06:08.805Z,24.30
2022-11-10T08:11:30.882Z,24.30
2022-11-10T08:16:53.045Z,24.50
2022-11-10T08:22:15.147Z,24.70
2022-11-10T08:27:37.247Z,24.80
2022-11-10T08:33:01.764Z,25.00
2022-11-10T08:38:24.646Z,24.50
2022-11-10T08:43:47.837Z,24.40
2022-11-10T08:49:09.938Z,24.40
2022-11-10T08:54:32.032Z,23.40
2022-11-10T08:59:54.140Z,21.30
2022-11-10T09:05:16.264Z,19.50
2022-11-10T09:10:43.462Z,18.40
2022-11-10T09:16:06.289Z,17.20
2022-11-10T09:21:28.406Z,16.30
2022-11-10T09:26:50.551Z,16.00
2022-11-10T09:32:12.660Z,15.80
2022-11-10T09:37:40.184Z,15.70
2022-11-10T09:43:04.441Z,15.50
2022-11-10T09:48:32.985Z,15.70
2022-11-10T09:54:10.393Z,15.40
2022-11-10T09:59:34.079Z,15.50
2022-11-10T10:21:01.956Z,15.40
2022-11-10T10:26:29.431Z,15.50
2022-11-10T10:31:53.179Z,15.60
2022-11-10T10:42:31.998Z,15.70
2022-11-10T10:47:56.742Z,15.50
2022-11-10T10:53:21.920Z,15.50
2022-11-10T10:59:03.310Z,15.20
2022-11-10T11:09:42.556Z,15.10
2022-11-10T11:21:10.264Z,15.30
2022-11-10T11:37:19.627Z,15.20
2022-11-10T12:30:32.994Z,15.10
2022-11-10T12:35:57.015Z,15.20
2022-11-10T12:41:21.505Z,15.10
2022-11-10T12:46:49.473Z,15.00
2022-11-10T12:52:22.400Z,15.10
2022-11-10T12:57:44.963Z,15.10
2022-11-10T13:03:15.900Z,15.00
2022-11-10T13:13:59.481Z,14.70
2022-11-10T13:24:42.564Z,14.70
2022-11-10T13:30:07.752Z,14.70
2022-11-10T13:40:39.874Z,14.60
2022-11-10T13:46:04.259Z,14.20
2022-11-10T13:51:37.441Z,14.30
2022-11-10T14:02:46.331Z,14.40
2022-11-10T14:08:17.132Z,14.20
2022-11-10T14:14:00.576Z,14.10
2022-11-10T14:19:41.759Z,14.10
2022-11-10T14:35:49.021Z,14.10
2022-11-10T14:47:27.080Z,13.90
2022-11-10T14:52:53.751Z,13.90
2022-11-10T14:58:23.775Z,13.90
2022-11-10T15:03:46.270Z,13.90
2022-11-10T15:09:29.520Z,14.10
2022-11-10T15:14:59.513Z,14.10
2022-11-10T15:20:40.710Z,14.20
2022-11-10T15:26:04.772Z,14.30
2022-11-10T15:31:30.026Z,14.30
2022-11-10T15:37:10.081Z,14.40
2022-11-10T15:42:33.225Z,14.30
2022-11-10T15:47:55.776Z,14.40
2022-11-10T15:53:24.344Z,14.40
2022-11-10T15:58:49.118Z,14.40
2022-11-10T16:04:12.091Z,14.30
2022-11-10T16:09:34.325Z,14.20
2022-11-10T16:14:56.507Z,14.20
2022-11-10T16:20:18.836Z,14.20
2022-11-10T16:25:41.788Z,14.20
2022-11-10T16:31:05.875Z,14.10
2022-11-10T16:41:37.856Z,14.10
2022-11-10T16:46:59.987Z,14.10
2022-11-10T16:52:22.727Z,14.10
2022-11-10T16:57:44.776Z,14.10
2022-11-10T17:03:24.180Z,14.00
2022-11-10T17:08:48.902Z,14.00
2022-11-10T17:14:12.459Z,14.00
2022-11-10T17:19:34.662Z,14.00
2022-11-10T17:24:56.786Z,13.90
2022-11-10T17:30:19.768Z,13.90
2022-11-10T17:35:46.026Z,13.90
2022-11-10T17:41:15.253Z,13.90
2022-11-10T17:46:37.385Z,13.80
2022-11-10T17:51:59.525Z,13.90
2022-11-10T17:57:21.621Z,13.80
2022-11-10T18:02:46.624Z,13.80
2022-11-10T18:08:12.247Z,13.80
2022-11-10T18:13:34.321Z,13.70
2022-11-10T18:18:58.766Z,13.70
2022-11-10T18:24:20.882Z,13.70
2022-11-10T18:29:42.960Z,13.70
2022-11-10T18:35:05.436Z,13.70
2022-11-10T18:40:27.678Z,13.60
2022-11-10T18:45:53.832Z,13.60
2022-11-10T18:51:16.841Z,13.60
2022-11-10T18:56:39.289Z,13.60
2022-11-10T19:02:01.471Z,13.50
2022-11-10T19:07:23.637Z,13.40
2022-11-10T19:12:45.717Z,13.40
2022-11-10T19:18:07.817Z,13.40
2022-11-10T19:23:30.076Z,13.40
2022-11-10T19:28:55.477Z,13.40
2022-11-10T19:34:19.051Z,13.40
2022-11-10T19:39:42.011Z,13.40
2022-11-10T19:45:04.329Z,13.40
2022-11-10T19:50:26.419Z,13.40
2022-11-10T19:55:48.799Z,13.30
2022-11-10T20:01:12.092Z,13.30
2022-11-10T20:06:34.378Z,13.30
2022-11-10T20:11:56.512Z,13.20
2022-11-10T20:17:18.971Z,13.30
2022-11-10T20:22:41.213Z,13.20
2022-11-10T20:28:06.293Z,13.20
2022-11-10T20:33:29.847Z,13.20
2022-11-10T20:38:53.296Z,13.20
2022-11-10T20:44:15.426Z,13.20
2022-11-10T20:49:37.529Z,13.20
2022-11-10T20:55:01.536Z,13.20
2022-11-10T21:00:23.812Z,13.20
2022-11-10T21:05:46.010Z,13.20
2022-11-10T21:11:09.401Z,13.20
2022-11-10T21:16:31.524Z,13.20
2022-11-10T21:21:53.958Z,13.20
2022-11-10T21:27:16.290Z,13.10
2022-11-10T21:32:38.386Z,13.10
2022-11-10T21:38:00.474Z,13.10
2022-11-10T21:43:22.791Z,13.10
2022-11-10T21:48:45.190Z,13.00
2022-11-10T21:54:09.268Z,13.00
2022-11-10T21:59:31.448Z,12.90
2022-11-10T22:05:02.877Z,12.90
2022-11-10T22:10:45.704Z,12.90
2022-11-10T22:16:52.766Z,12.70
2022-11-10T22:22:14.862Z,12.70
2022-11-10T22:27:37.019Z,12.70
2022-11-10T22:33:19.471Z,12.70
2022-11-10T22:38:42.559Z,12.70
2022-11-10T22:44:05.207Z,12.80
2022-11-10T22:49:27.405Z,12.80
2022-11-10T22:54:49.519Z,12.80
2022-11-10T23:00:12.684Z,12.90
2022-11-10T23:05:37.024Z,12.80
2022-11-10T23:16:13.018Z,12.80
2022-11-10T23:21:35.150Z,12.80
2022-11-10T23:26:57.267Z,12.90
2022-11-10T23:32:19.321Z,12.80
2022-11-10T23:37:41.417Z,12.90
2022-11-10T23:43:03.700Z,12.80
2022-11-10T23:48:26.141Z,12.90
2022-11-10T23:53:48.252Z,12.80
2022-11-10T23:59:10.379Z,12.80
